createdAt,value
2019-03-24T00:00:30.913Z,3.83
2019-03-24T00:03:01.601Z,6.03
2019-03-24T00:05:32.385Z,6.90
2019-03-24T00:08:03.104Z,7.87
2019-03-24T00:10:33.716Z,6.80
2019-03-24T00:13:05.138Z,6.40
2019-03-24T00:15:35.885Z,6.80
2019-03-24T00:18:07.440Z,5.87
2019-03-24T00:20:37.921Z,6.73
2019-03-24T00:23:08.472Z,7.43
2019-03-24T00:25:38.981Z,5.77
2019-03-24T00:28:09.483Z,5.90
2019-03-24T00:30:40.504Z,6.00
2019-03-24T00:33:11.056Z,6.07
2019-03-24T00:35:41.584Z,5.80
2019-03-24T00:38:12.112Z,5.33
2019-03-24T00:40:42.676Z,5.40
2019-03-24T00:43:13.749Z,5.27
2019-03-24T00:45:46.130Z,5.40
2019-03-24T00:48:17.204Z,4.60
2019-03-24T00:50:47.961Z,4.70
2019-03-24T00:53:18.485Z,4.40
2019-03-24T00:55:49.178Z,3.97
2019-03-24T00:58:19.813Z,4.70
2019-03-24T01:00:51.538Z,5.27
2019-03-24T01:03:22.252Z,4.50
2019-03-24T01:05:52.930Z,4.40
2019-03-24T01:08:23.800Z,4.63
2019-03-24T01:10:54.671Z,4.20
2019-03-24T01:13:25.654Z,4.47
2019-03-24T01:15:56.990Z,4.53
2019-03-24T01:18:27.629Z,4.17
2019-03-24T01:20:58.899Z,4.90
2019-03-24T01:23:30.267Z,4.10
2019-03-24T01:26:00.833Z,4.80
2019-03-24T01:28:31.905Z,3.87
2019-03-24T01:31:02.998Z,4.63
2019-03-24T01:33:33.590Z,4.30
2019-03-24T01:36:04.712Z,4.70
2019-03-24T01:38:35.241Z,4.43
2019-03-24T01:41:08.007Z,4.60
2019-03-24T01:43:38.107Z,3.80
2019-03-24T01:46:08.653Z,4.17
2019-03-24T01:48:39.625Z,3.70
2019-03-24T01:51:10.168Z,3.90
2019-03-24T01:53:40.756Z,4.93
2019-03-24T01:56:11.265Z,5.20
2019-03-24T01:58:42.064Z,5.10
2019-03-24T02:01:13.204Z,5.20
2019-03-24T02:03:43.949Z,5.50
2019-03-24T02:06:15.279Z,4.90
2019-03-24T02:08:45.847Z,4.50
2019-03-24T02:11:17.272Z,5.23
2019-03-24T02:13:48.181Z,5.20
2019-03-24T02:16:19.256Z,5.63
2019-03-24T02:18:50.250Z,5.90
2019-03-24T02:21:20.781Z,5.53
2019-03-24T02:23:51.576Z,6.13
2019-03-24T02:26:22.393Z,5.33
2019-03-24T02:28:52.981Z,5.73
2019-03-24T02:31:23.652Z,5.67
2019-03-24T02:33:54.269Z,6.07
2019-03-24T02:36:25.080Z,5.10
2019-03-24T02:38:55.587Z,5.40
2019-03-24T02:41:26.458Z,4.73
2019-03-24T02:43:57.038Z,4.77
2019-03-24T02:46:27.505Z,5.17
2019-03-24T02:48:58.222Z,5.90
2019-03-24T02:51:28.730Z,5.07
2019-03-24T02:53:59.639Z,4.20
2019-03-24T02:56:30.422Z,4.80
2019-03-24T02:59:01.021Z,5.47
2019-03-24T03:01:32.076Z,4.80
2019-03-24T03:04:02.898Z,4.43
2019-03-24T03:06:33.486Z,5.17
2019-03-24T03:09:05.565Z,5.00
2019-03-24T03:11:36.252Z,4.17
2019-03-24T03:14:07.150Z,5.40
2019-03-24T03:16:39.291Z,4.00
2019-03-24T03:19:10.149Z,4.37
2019-03-24T03:21:40.780Z,4.10
2019-03-24T03:24:11.613Z,4.40
2019-03-24T03:26:42.153Z,4.07
2019-03-24T03:29:12.641Z,4.77
2019-03-24T03:31:43.401Z,4.53
2019-03-24T03:34:14.060Z,4.20
2019-03-24T03:36:44.844Z,3.77
2019-03-24T03:39:15.385Z,4.10
2019-03-24T03:41:46.492Z,4.47
2019-03-24T03:44:17.522Z,4.63
2019-03-24T03:46:52.939Z,4.00
2019-03-24T03:49:21.312Z,4.23
2019-03-24T03:51:52.541Z,3.87
2019-03-24T03:54:25.173Z,4.27
2019-03-24T03:56:55.944Z,4.33
2019-03-24T03:59:27.002Z,4.00
2019-03-24T04:01:58.036Z,4.17
2019-03-24T04:04:28.717Z,4.70
2019-03-24T04:06:59.854Z,3.87
2019-03-24T04:09:30.853Z,4.50
2019-03-24T04:12:02.034Z,3.80
2019-03-24T04:14:32.705Z,3.57
2019-03-24T04:17:07.387Z,4.27
2019-03-24T04:19:36.033Z,3.70
2019-03-24T04:22:07.604Z,3.70
2019-03-24T04:24:38.785Z,4.27
2019-03-24T04:27:09.282Z,3.70
2019-03-24T04:29:40.449Z,3.80
2019-03-24T04:32:11.487Z,3.80
2019-03-24T04:34:42.467Z,3.57
2019-03-24T04:37:13.025Z,4.53
2019-03-24T04:39:43.553Z,4.03
2019-03-24T04:42:14.640Z,3.60
2019-03-24T04:44:45.140Z,4.00
2019-03-24T04:47:16.841Z,4.33
2019-03-24T04:49:47.656Z,4.07
2019-03-24T04:52:18.158Z,4.00
2019-03-24T04:54:49.547Z,4.40
2019-03-24T04:57:20.366Z,4.00
2019-03-24T04:59:50.992Z,4.00
2019-03-24T05:02:22.645Z,3.43
2019-03-24T05:04:53.145Z,3.50
2019-03-24T05:07:24.145Z,3.70
2019-03-24T05:09:55.477Z,3.33
2019-03-24T05:12:26.008Z,3.37
2019-03-24T05:14:57.052Z,2.83
2019-03-24T05:17:27.583Z,3.37
2019-03-24T05:19:58.173Z,3.47
2019-03-24T05:22:29.180Z,3.70
2019-03-24T05:24:59.724Z,3.10
2019-03-24T05:27:30.196Z,3.20
2019-03-24T05:30:00.772Z,3.60
2019-03-24T05:32:31.764Z,4.80
2019-03-24T05:35:02.298Z,2.77
2019-03-24T05:37:34.137Z,2.93
2019-03-24T05:40:05.323Z,3.00
2019-03-24T05:42:36.253Z,3.03
2019-03-24T05:45:08.066Z,3.00
2019-03-24T05:47:39.236Z,3.27
2019-03-24T05:50:10.526Z,3.20
2019-03-24T05:52:41.476Z,3.13
2019-03-24T05:55:12.890Z,3.40
2019-03-24T05:57:44.904Z,3.40
2019-03-24T06:00:15.731Z,3.80
2019-03-24T06:02:47.125Z,3.00
2019-03-24T06:05:18.163Z,3.90
2019-03-24T06:07:49.761Z,3.77
2019-03-24T06:10:21.230Z,4.00
2019-03-24T06:12:52.097Z,3.90
2019-03-24T06:15:22.620Z,4.10
2019-03-24T06:17:53.672Z,3.20
2019-03-24T06:20:24.785Z,3.80
2019-03-24T06:22:57.508Z,3.43
2019-03-24T06:25:28.064Z,3.57
2019-03-24T06:27:59.096Z,4.07
2019-03-24T06:30:29.737Z,3.50
2019-03-24T06:33:00.764Z,3.30
2019-03-24T06:35:31.304Z,4.10
2019-03-24T06:38:02.172Z,3.97
2019-03-24T06:40:32.725Z,3.90
2019-03-24T06:43:03.709Z,3.70
2019-03-24T06:45:34.337Z,4.23
2019-03-24T06:48:05.105Z,3.93
2019-03-24T06:50:36.192Z,3.30
2019-03-24T06:53:06.754Z,3.50
2019-03-24T06:55:37.353Z,3.27
2019-03-24T06:58:07.925Z,3.80
2019-03-24T07:00:38.756Z,3.43
2019-03-24T07:03:09.713Z,3.47
2019-03-24T07:05:40.441Z,3.27
2019-03-24T07:08:11.253Z,3.37
2019-03-24T07:10:41.827Z,2.77
2019-03-24T07:13:12.628Z,3.53
2019-03-24T07:15:43.696Z,4.73
2019-03-24T07:18:14.358Z,5.17
2019-03-24T07:20:45.388Z,5.27
2019-03-24T07:23:15.976Z,5.23
2019-03-24T07:25:46.463Z,5.10
2019-03-24T07:28:16.973Z,5.80
2019-03-24T07:30:48.013Z,6.00
2019-03-24T07:33:18.608Z,6.90
2019-03-24T07:35:49.157Z,7.50
2019-03-24T07:38:19.656Z,6.93
2019-03-24T07:40:50.278Z,7.43
2019-03-24T07:43:20.809Z,7.60
2019-03-24T07:45:51.422Z,7.10
2019-03-24T07:48:22.000Z,7.80
2019-03-24T07:50:52.584Z,7.57
2019-03-24T07:53:23.104Z,7.77
2019-03-24T07:55:53.665Z,6.30
2019-03-24T07:58:24.164Z,6.73
2019-03-24T08:00:55.044Z,6.80
2019-03-24T08:03:25.594Z,6.33
2019-03-24T08:05:56.193Z,5.67
2019-03-24T08:08:26.696Z,5.10
2019-03-24T08:10:57.851Z,5.00
2019-03-24T08:13:28.743Z,6.90
2019-03-24T08:15:59.376Z,6.60
2019-03-24T08:18:30.394Z,6.80
2019-03-24T08:21:01.013Z,6.80
2019-03-24T08:23:31.581Z,6.10
2019-03-24T08:26:02.216Z,5.87
2019-03-24T08:28:32.783Z,6.97
2019-03-24T08:31:03.281Z,11.83
2019-03-24T08:33:33.901Z,9.10
2019-03-24T08:36:04.388Z,7.60
2019-03-24T08:38:35.273Z,8.20
2019-03-24T08:41:06.289Z,6.33
2019-03-24T08:43:36.890Z,7.00
2019-03-24T08:46:07.718Z,7.03
2019-03-24T08:48:41.031Z,6.63
2019-03-24T08:51:10.472Z,7.07
2019-03-24T08:53:41.020Z,6.83
2019-03-24T08:56:11.605Z,6.50
2019-03-24T08:58:42.126Z,6.47
2019-03-24T09:01:13.091Z,5.90
2019-03-24T09:03:43.618Z,5.23
2019-03-24T09:06:14.164Z,5.20
2019-03-24T09:08:44.660Z,5.93
2019-03-24T09:11:15.217Z,6.63
2019-03-24T09:13:45.926Z,6.53
2019-03-24T09:16:16.942Z,7.53
2019-03-24T09:18:52.889Z,6.40
2019-03-24T09:21:21.532Z,7.20
2019-03-24T09:23:52.107Z,9.77
2019-03-24T09:26:23.361Z,8.30
2019-03-24T09:28:59.418Z,7.83
2019-03-24T09:31:30.649Z,8.20
2019-03-24T09:34:01.173Z,7.80
2019-03-24T09:36:32.020Z,7.20
2019-03-24T09:39:02.556Z,7.47
2019-03-24T09:41:36.031Z,7.80
2019-03-24T09:44:06.649Z,6.13
2019-03-24T09:46:37.256Z,6.43
2019-03-24T09:49:07.767Z,7.30
2019-03-24T09:51:38.331Z,6.80
2019-03-24T09:54:09.201Z,6.50
2019-03-24T09:56:39.900Z,7.33
2019-03-24T09:59:10.410Z,7.20
2019-03-24T10:01:41.612Z,6.70
2019-03-24T10:04:12.185Z,7.78
2019-03-24T10:06:43.296Z,8.63
2019-03-24T10:09:13.968Z,7.70
2019-03-24T10:11:44.520Z,7.22
2019-03-24T10:14:16.591Z,6.77
2019-03-24T10:16:47.768Z,7.87
2019-03-24T10:19:18.925Z,7.83
2019-03-24T10:21:50.777Z,6.03
2019-03-24T10:24:21.391Z,6.95
2019-03-24T10:26:52.073Z,6.37
2019-03-24T10:29:22.907Z,6.92
2019-03-24T10:31:54.229Z,7.17
2019-03-24T10:34:24.845Z,8.03
2019-03-24T10:36:55.487Z,8.20
2019-03-24T10:39:26.265Z,9.03
2019-03-24T10:41:57.291Z,8.25
2019-03-24T10:44:28.024Z,8.55
2019-03-24T10:46:58.683Z,8.60
2019-03-24T10:49:29.397Z,8.98
2019-03-24T10:52:01.965Z,8.50
2019-03-24T10:54:32.558Z,8.43
2019-03-24T10:57:05.356Z,8.95
2019-03-24T10:59:35.371Z,10.08
2019-03-24T11:02:05.934Z,10.18
2019-03-24T11:04:36.444Z,8.55
2019-03-24T11:07:07.057Z,9.50
2019-03-24T11:09:39.045Z,9.75
2019-03-24T11:12:09.720Z,11.68
2019-03-24T11:14:41.213Z,10.03
2019-03-24T11:17:11.901Z,9.33
2019-03-24T11:19:42.486Z,9.98
2019-03-24T11:22:14.046Z,9.98
2019-03-24T11:24:47.219Z,9.98
2019-03-24T11:27:20.072Z,10.18
2019-03-24T11:29:50.869Z,10.68
2019-03-24T11:32:21.635Z,10.65
2019-03-24T11:34:52.406Z,8.48
2019-03-24T11:37:23.141Z,8.03
2019-03-24T11:39:53.731Z,6.47
2019-03-24T11:42:24.384Z,7.78
2019-03-24T11:44:55.001Z,8.28
2019-03-24T11:47:26.750Z,7.12
2019-03-24T11:49:57.708Z,6.53
2019-03-24T11:52:28.388Z,6.90
2019-03-24T11:54:59.589Z,8.05
2019-03-24T11:57:30.178Z,7.55
2019-03-24T12:00:01.635Z,8.38
2019-03-24T12:02:32.733Z,6.92
2019-03-24T12:05:03.285Z,8.00
2019-03-24T12:07:33.972Z,7.17
2019-03-24T12:10:07.570Z,8.60
2019-03-24T12:12:38.634Z,8.85
2019-03-24T12:15:11.469Z,8.73
2019-03-24T12:17:43.371Z,8.87
2019-03-24T12:20:29.278Z,10.03
2019-03-24T12:23:37.040Z,9.48
2019-03-24T12:26:09.169Z,10.40
2019-03-24T12:28:39.713Z,10.10
2019-03-24T12:31:11.477Z,10.20
2019-03-24T12:33:43.577Z,10.10
2019-03-24T12:36:14.730Z,10.65
2019-03-24T12:38:47.297Z,10.80
2019-03-24T12:41:18.030Z,9.48
2019-03-24T12:43:49.005Z,14.18
2019-03-24T12:46:19.519Z,11.05
2019-03-24T12:48:50.143Z,10.72
2019-03-24T12:51:22.061Z,8.75
2019-03-24T12:53:52.905Z,13.58
2019-03-24T12:56:25.148Z,20.75
2019-03-24T12:58:55.865Z,20.40
2019-03-24T13:01:26.471Z,12.78
2019-03-24T13:03:57.108Z,8.37
2019-03-24T13:06:27.822Z,9.00
2019-03-24T13:08:58.425Z,10.47
2019-03-24T13:11:29.061Z,8.75
2019-03-24T13:13:59.749Z,8.97
2019-03-24T13:16:30.332Z,9.50
2019-03-24T13:19:00.865Z,11.43
2019-03-24T13:21:31.417Z,9.37
2019-03-24T13:24:01.945Z,9.53
2019-03-24T13:26:32.854Z,17.10
2019-03-24T13:29:03.422Z,12.37
2019-03-24T13:31:34.389Z,28.17
2019-03-24T13:34:05.007Z,10.70
2019-03-24T13:36:35.602Z,8.77
2019-03-24T13:39:07.921Z,9.00
2019-03-24T13:41:38.460Z,7.80
2019-03-24T13:44:08.982Z,8.03
2019-03-24T13:46:39.517Z,7.43
2019-03-24T13:49:10.583Z,7.80
2019-03-24T13:51:41.693Z,33.60
2019-03-24T13:54:12.274Z,10.07
2019-03-24T13:56:42.869Z,9.13
2019-03-24T13:59:13.400Z,12.00
2019-03-24T14:01:44.021Z,8.67
2019-03-24T14:04:14.544Z,10.20
2019-03-24T14:06:45.392Z,10.77
2019-03-24T14:09:15.927Z,26.00
2019-03-24T14:11:46.517Z,12.03
2019-03-24T14:14:17.157Z,9.97
2019-03-24T14:16:47.738Z,10.00
2019-03-24T14:19:19.404Z,9.30
2019-03-24T14:21:50.041Z,11.13
2019-03-24T14:24:21.065Z,11.20
2019-03-24T14:26:51.827Z,9.00
2019-03-24T14:29:22.425Z,10.60
2019-03-24T14:31:52.975Z,11.83
2019-03-24T14:34:23.608Z,8.37
2019-03-24T14:36:54.176Z,9.10
2019-03-24T14:39:24.834Z,8.63
2019-03-24T14:41:55.968Z,8.77
2019-03-24T14:44:26.521Z,8.50
2019-03-24T14:46:57.105Z,8.37
2019-03-24T14:49:28.129Z,7.47
2019-03-24T14:51:58.882Z,8.80
2019-03-24T14:54:29.496Z,8.15
2019-03-24T14:57:00.031Z,8.50
2019-03-24T14:59:30.616Z,8.40
2019-03-24T15:02:01.147Z,8.90
2019-03-24T15:04:31.777Z,7.53
2019-03-24T15:07:02.405Z,7.87
2019-03-24T15:09:33.630Z,8.20
2019-03-24T15:12:04.670Z,8.57
2019-03-24T15:14:35.897Z,8.60
2019-03-24T15:17:06.837Z,9.53
2019-03-24T15:19:37.395Z,8.30
2019-03-24T15:22:08.177Z,8.27
2019-03-24T15:24:39.376Z,7.73
2019-03-24T15:27:10.676Z,8.80
2019-03-24T15:29:41.486Z,8.47
2019-03-24T15:32:13.202Z,8.97
2019-03-24T15:34:43.772Z,9.47
2019-03-24T15:37:14.373Z,9.03
2019-03-24T15:39:44.912Z,7.35
2019-03-24T15:42:15.531Z,7.83
2019-03-24T15:44:46.324Z,7.80
2019-03-24T15:47:16.920Z,7.10
2019-03-24T15:49:47.557Z,6.73
2019-03-24T15:52:18.325Z,7.27
2019-03-24T15:54:48.849Z,7.30
2019-03-24T15:57:19.442Z,7.80
2019-03-24T15:59:52.545Z,7.03
2019-03-24T16:02:23.120Z,6.57
2019-03-24T16:04:53.670Z,6.77
2019-03-24T16:07:24.251Z,7.40
2019-03-24T16:09:54.888Z,5.67
2019-03-24T16:12:25.574Z,6.23
2019-03-24T16:14:56.183Z,5.63
2019-03-24T16:17:26.815Z,5.80
2019-03-24T16:19:57.345Z,5.60
2019-03-24T16:22:27.860Z,5.43
2019-03-24T16:24:58.440Z,5.53
2019-03-24T16:27:28.997Z,5.80
2019-03-24T16:29:59.604Z,6.80
2019-03-24T16:32:30.175Z,5.87
2019-03-24T16:35:00.730Z,5.77
2019-03-24T16:37:31.437Z,5.73
2019-03-24T16:40:01.987Z,5.70
2019-03-24T16:42:32.540Z,5.67
2019-03-24T16:45:03.065Z,5.33
2019-03-24T16:47:33.685Z,4.70
2019-03-24T16:50:04.386Z,6.50
2019-03-24T16:52:34.921Z,6.00
2019-03-24T16:55:06.058Z,5.43
2019-03-24T16:57:36.589Z,5.10
2019-03-24T17:00:07.862Z,4.57
2019-03-24T17:02:38.628Z,4.80
2019-03-24T17:05:09.440Z,5.00
2019-03-24T17:07:40.041Z,5.27
2019-03-24T17:10:10.907Z,5.47
2019-03-24T17:12:41.536Z,4.87
2019-03-24T17:15:12.408Z,4.97
2019-03-24T17:17:42.950Z,5.03
2019-03-24T17:20:13.730Z,4.67
2019-03-24T17:22:44.350Z,4.90
2019-03-24T17:25:15.600Z,5.80
2019-03-24T17:27:46.205Z,5.60
2019-03-24T17:30:17.171Z,5.00
2019-03-24T17:32:47.776Z,5.50
2019-03-24T17:35:18.450Z,5.97
2019-03-24T17:37:49.857Z,5.53
2019-03-24T17:40:20.482Z,4.93
2019-03-24T17:42:51.101Z,4.83
2019-03-24T17:45:21.821Z,5.23
2019-03-24T17:47:52.443Z,4.43
2019-03-24T17:50:23.183Z,4.43
2019-03-24T17:52:53.791Z,4.90
2019-03-24T17:55:27.768Z,3.97
2019-03-24T17:57:57.277Z,4.30
2019-03-24T18:00:38.941Z,4.00
2019-03-24T18:03:09.612Z,4.17
2019-03-24T18:05:40.385Z,4.40
2019-03-24T18:08:11.070Z,4.30
2019-03-24T18:10:41.751Z,4.80
2019-03-24T18:13:13.508Z,4.03
2019-03-24T18:15:44.041Z,4.33
2019-03-24T18:18:14.786Z,4.37
2019-03-24T18:20:45.355Z,4.80
2019-03-24T18:23:16.355Z,4.53
2019-03-24T18:25:46.896Z,4.13
2019-03-24T18:28:17.554Z,4.67
2019-03-24T18:30:48.789Z,3.77
2019-03-24T18:33:19.357Z,4.83
2019-03-24T18:35:50.282Z,4.03
2019-03-24T18:38:21.336Z,4.00
2019-03-24T18:40:52.173Z,4.40
2019-03-24T18:43:22.934Z,4.80
2019-03-24T18:45:53.506Z,4.20
2019-03-24T18:48:24.121Z,4.40
2019-03-24T18:50:54.685Z,4.43
2019-03-24T18:53:25.460Z,3.40
2019-03-24T18:55:56.113Z,3.90
2019-03-24T18:58:26.740Z,3.77
2019-03-24T19:00:57.465Z,4.17
2019-03-24T19:03:28.074Z,3.50
2019-03-24T19:06:00.184Z,4.23
2019-03-24T19:08:31.037Z,3.40
2019-03-24T19:11:02.072Z,3.33
2019-03-24T19:13:33.289Z,3.97
2019-03-24T19:16:04.811Z,3.80
2019-03-24T19:18:35.312Z,3.80
2019-03-24T19:21:09.966Z,3.60
2019-03-24T19:23:41.253Z,3.77
2019-03-24T19:26:11.944Z,3.90
2019-03-24T19:28:43.052Z,3.70
2019-03-24T19:31:14.112Z,3.40
2019-03-24T19:33:45.775Z,4.10
2019-03-24T19:36:16.293Z,3.20
2019-03-24T19:38:47.550Z,3.83
2019-03-24T19:41:18.084Z,3.93
2019-03-24T19:43:49.336Z,3.50
2019-03-24T19:46:20.502Z,3.70
2019-03-24T19:48:51.588Z,3.40
2019-03-24T19:51:24.311Z,3.80
2019-03-24T19:53:54.964Z,4.00
2019-03-24T19:56:25.492Z,4.17
2019-03-24T19:58:56.764Z,3.47
2019-03-24T20:01:27.734Z,3.33
2019-03-24T20:03:58.901Z,3.83
2019-03-24T20:06:29.993Z,3.30
2019-03-24T20:09:01.006Z,2.90
2019-03-24T20:11:32.093Z,3.30
2019-03-24T20:14:02.898Z,3.50
2019-03-24T20:16:33.744Z,3.53
2019-03-24T20:19:06.804Z,3.47
2019-03-24T20:21:37.327Z,2.97
2019-03-24T20:24:08.643Z,3.17
2019-03-24T20:26:39.257Z,3.30
2019-03-24T20:29:10.572Z,3.13
2019-03-24T20:31:42.704Z,3.67
2019-03-24T20:34:14.880Z,3.50
2019-03-24T20:36:47.301Z,3.90
2019-03-24T20:39:19.148Z,3.30
2019-03-24T20:41:49.731Z,3.10
2019-03-24T20:44:23.217Z,2.90
2019-03-24T20:46:55.475Z,2.90
2019-03-24T20:49:28.673Z,2.87
2019-03-24T20:52:00.100Z,3.27
2019-03-24T20:54:34.027Z,3.57
2019-03-24T20:57:05.062Z,2.83
2019-03-24T20:59:35.805Z,3.03
2019-03-24T21:02:06.615Z,2.87
2019-03-24T21:04:37.169Z,3.03
2019-03-24T21:07:08.417Z,2.80
2019-03-24T21:09:39.126Z,3.03
2019-03-24T21:12:09.702Z,3.20
2019-03-24T21:14:40.492Z,2.73
2019-03-24T21:17:11.321Z,3.27
2019-03-24T21:19:42.608Z,2.87
2019-03-24T21:22:13.641Z,2.47
2019-03-24T21:24:44.477Z,3.00
2019-03-24T21:27:15.145Z,2.93
2019-03-24T21:29:45.781Z,3.30
2019-03-24T21:32:16.389Z,2.73
2019-03-24T21:34:47.190Z,2.90
2019-03-24T21:37:17.717Z,2.70
2019-03-24T21:39:48.312Z,2.67
2019-03-24T21:42:19.288Z,2.73
2019-03-24T21:44:49.790Z,2.77
2019-03-24T21:47:20.273Z,3.03
2019-03-24T21:49:50.981Z,3.40
2019-03-24T21:52:21.549Z,3.00
2019-03-24T21:54:52.333Z,3.07
2019-03-24T21:57:23.068Z,3.13
2019-03-24T21:59:53.549Z,3.13
2019-03-24T22:02:24.444Z,3.90
2019-03-24T22:04:55.970Z,2.40
2019-03-24T22:07:26.640Z,3.03
2019-03-24T22:09:57.121Z,3.57
2019-03-24T22:12:27.832Z,3.40
2019-03-24T22:14:58.492Z,3.13
2019-03-24T22:17:29.068Z,2.77
2019-03-24T22:19:59.809Z,2.80
2019-03-24T22:22:30.361Z,3.33
2019-03-24T22:25:00.873Z,2.73
2019-03-24T22:27:31.442Z,3.27
2019-03-24T22:30:02.480Z,3.00
2019-03-24T22:32:33.200Z,3.13
2019-03-24T22:35:03.919Z,3.37
2019-03-24T22:37:35.037Z,2.63
2019-03-24T22:40:06.681Z,3.20
2019-03-24T22:42:37.272Z,3.10
2019-03-24T22:45:08.294Z,2.97
2019-03-24T22:47:40.308Z,2.57
2019-03-24T22:50:11.025Z,2.90
2019-03-24T22:52:52.557Z,3.17
2019-03-24T22:55:23.157Z,2.63
2019-03-24T22:57:53.914Z,2.90
2019-03-24T23:01:01.933Z,2.87
2019-03-24T23:03:32.604Z,2.80
2019-03-24T23:06:03.195Z,3.50
2019-03-24T23:08:33.789Z,2.87
2019-03-24T23:11:04.501Z,2.83
2019-03-24T23:13:35.716Z,2.77
2019-03-24T23:16:06.422Z,3.13
2019-03-24T23:18:36.984Z,3.27
2019-03-24T23:21:07.474Z,3.23
2019-03-24T23:23:38.326Z,2.97
2019-03-24T23:26:08.889Z,2.60
2019-03-24T23:28:39.405Z,2.47
2019-03-24T23:31:10.217Z,3.07
2019-03-24T23:33:40.973Z,2.63
2019-03-24T23:36:12.785Z,3.20
2019-03-24T23:38:43.853Z,2.83
2019-03-24T23:41:14.388Z,3.00
2019-03-24T23:43:45.321Z,2.83
2019-03-24T23:46:16.073Z,2.80
2019-03-24T23:48:46.905Z,2.53
2019-03-24T23:51:18.030Z,3.10
2019-03-24T23:53:48.571Z,3.10
2019-03-24T23:56:19.522Z,2.87
2019-03-24T23:58:50.029Z,3.40
